sensor_id;sensor_type;location;lat;lon;timestamp;temperature;humidity
3792;DHT22;1911;53.768;11.474;2022-07-09T00:00:03;14.50;99.90
3792;DHT22;1911;53.768;11.474;2022-07-09T00:02:29;14.40;1.00
3792;DHT22;1911;53.768;11.474;2022-07-09T00:04:54;14.50;1.00
3792;DHT22;1911;53.768;11.474;2022-07-09T00:07:20;14.50;1.00
3792;DHT22;1911;53.768;11.474;2022-07-09T00:09:45;14.50;1.00
3792;DHT22;1911;53.768;11.474;2022-07-09T00:12:11;14.50;1.00
3792;DHT22;1911;53.768;11.474;2022-07-09T00:14:37;14.50;1.00
3792;DHT22;1911;53.768;11.474;2022-07-09T00:17:02;14.50;1.00
3792;DHT22;1911;53.768;11.474;2022-07-09T00:19:28;14.50;1.00
3792;DHT22;1911;53.768;11.474;2022-07-09T00:21:54;14.60;1.00
3792;DHT22;1911;53.768;11.474;2022-07-09T00:24:19;14.60;1.00
3792;DHT22;1911;53.768;11.474;2022-07-09T00:26:45;14.60;1.00
3792;DHT22;1911;53.768;11.474;2022-07-09T00:29:10;14.60;1.00
3792;DHT22;1911;53.768;11.474;2022-07-09T00:31:36;14.60;99.90
3792;DHT22;1911;53.768;11.474;2022-07-09T00:34:02;14.60;99.90
3792;DHT22;1911;53.768;11.474;2022-07-09T00:36:27;14.60;99.90
3792;DHT22;1911;53.768;11.474;2022-07-09T00:38:53;14.60;99.90
3792;DHT22;1911;53.768;11.474;2022-07-09T00:41:18;14.60;99.90
3792;DHT22;1911;53.768;11.474;2022-07-09T00:43:49;14.60;99.90
3792;DHT22;1911;53.768;11.474;2022-07-09T00:46:16;14.60;99.90
3792;DHT22;1911;53.768;11.474;2022-07-09T00:48:42;14.60;99.90
3792;DHT22;1911;53.768;11.474;2022-07-09T00:51:08;14.60;99.90
3792;DHT22;1911;53.768;11.474;2022-07-09T00:53:34;14.60;99.90
3792;DHT22;1911;53.768;11.474;2022-07-09T00:56:01;14.60;99.90
3792;DHT22;1911;53.768;11.474;2022-07-09T00:58:28;14.60;99.90
3792;DHT22;1911;53.768;11.474;2022-07-09T01:00:55;14.50;99.90
3792;DHT22;1911;53.768;11.474;2022-07-09T01:03:21;14.60;99.90
3792;DHT22;1911;53.768;11.474;2022-07-09T01:05:49;14.60;99.90
3792;DHT22;1911;53.768;11.474;2022-07-09T01:08:15;14.60;99.90
3792;DHT22;1911;53.768;11.474;2022-07-09T01:10:41;14.60;99.90
3792;DHT22;1911;53.768;11.474;2022-07-09T01:13:06;14.60;99.90
3792;DHT22;1911;53.768;11.474;2022-07-09T01:15:33;14.60;99.90
3792;DHT22;1911;53.768;11.474;2022-07-09T01:17:59;14.60;99.90
3792;DHT22;1911;53.768;11.474;2022-07-09T01:20:25;14.50;99.90
3792;DHT22;1911;53.768;11.474;2022-07-09T01:22:52;14.60;99.90
3792;DHT22;1911;53.768;11.474;2022-07-09T01:25:19;14.60;99.90
3792;DHT22;1911;53.768;11.474;2022-07-09T01:27:45;14.50;99.90
3792;DHT22;1911;53.768;11.474;2022-07-09T01:30:26;14.60;99.90
3792;DHT22;1911;53.768;11.474;2022-07-09T01:32:52;14.60;99.90
3792;DHT22;1911;53.768;11.474;2022-07-09T01:35:19;14.60;99.90
3792;DHT22;1911;53.768;11.474;2022-07-09T01:37:45;14.60;99.90
3792;DHT22;1911;53.768;11.474;2022-07-09T01:40:11;14.60;99.90
3792;DHT22;1911;53.768;11.474;2022-07-09T01:42:37;14.60;99.90
3792;DHT22;1911;53.768;11.474;2022-07-09T01:45:02;14.60;99.90
3792;DHT22;1911;53.768;11.474;2022-07-09T01:47:28;14.60;99.90
3792;DHT22;1911;53.768;11.474;2022-07-09T01:49:54;14.60;99.90
3792;DHT22;1911;53.768;11.474;2022-07-09T01:52:20;14.60;99.90
3792;DHT22;1911;53.768;11.474;2022-07-09T01:54:45;14.60;99.90
3792;DHT22;1911;53.768;11.474;2022-07-09T01:57:11;14.60;99.90
3792;DHT22;1911;53.768;11.474;2022-07-09T01:59:36;14.60;1.00
3792;DHT22;1911;53.768;11.474;2022-07-09T02:02:02;14.60;99.90
3792;DHT22;1911;53.768;11.474;2022-07-09T02:04:28;14.60;1.00
3792;DHT22;1911;53.768;11.474;2022-07-09T02:06:53;14.60;1.00
3792;DHT22;1911;53.768;11.474;2022-07-09T02:09:19;14.50;1.00
3792;DHT22;1911;53.768;11.474;2022-07-09T02:11:44;14.60;1.00
3792;DHT22;1911;53.768;11.474;2022-07-09T02:14:10;14.50;1.00
3792;DHT22;1911;53.768;11.474;2022-07-09T02:16:36;14.60;1.00
3792;DHT22;1911;53.768;11.474;2022-07-09T02:19:02;14.50;1.00
3792;DHT22;1911;53.768;11.474;2022-07-09T02:21:27;14.50;1.00
3792;DHT22;1911;53.768;11.474;2022-07-09T02:23:53;14.50;1.00
3792;DHT22;1911;53.768;11.474;2022-07-09T02:26:26;14.50;1.00
3792;DHT22;1911;53.768;11.474;2022-07-09T02:28:54;14.50;1.00
3792;DHT22;1911;53.768;11.474;2022-07-09T02:31:19;14.50;1.00
3792;DHT22;1911;53.768;11.474;2022-07-09T02:33:45;14.60;1.00
3792;DHT22;1911;53.768;11.474;2022-07-09T02:36:11;14.60;1.00
3792;DHT22;1911;53.768;11.474;2022-07-09T02:38:37;14.60;1.00
3792;DHT22;1911;53.768;11.474;2022-07-09T02:41:03;14.60;1.00
3792;DHT22;1911;53.768;11.474;2022-07-09T02:43:29;14.70;1.00
3792;DHT22;1911;53.768;11.474;2022-07-09T02:45:55;14.60;1.00
3792;DHT22;1911;53.768;11.474;2022-07-09T02:48:24;14.70;1.00
3792;DHT22;1911;53.768;11.474;2022-07-09T02:50:53;14.60;1.00
3792;DHT22;1911;53.768;11.474;2022-07-09T02:53:20;14.60;1.00
3792;DHT22;1911;53.768;11.474;2022-07-09T02:55:45;14.70;1.00
3792;DHT22;1911;53.768;11.474;2022-07-09T02:58:12;14.70;1.00
3792;DHT22;1911;53.768;11.474;2022-07-09T03:00:38;14.70;1.00
3792;DHT22;1911;53.768;11.474;2022-07-09T03:03:07;14.70;1.00
3792;DHT22;1911;53.768;11.474;2022-07-09T03:05:33;14.70;1.00
3792;DHT22;1911;53.768;11.474;2022-07-09T03:07:59;14.70;1.00
3792;DHT22;1911;53.768;11.474;2022-07-09T03:10:25;14.70;1.00
3792;DHT22;1911;53.768;11.474;2022-07-09T03:12:51;14.70;1.00
3792;DHT22;1911;53.768;11.474;2022-07-09T03:15:17;14.70;1.00
3792;DHT22;1911;53.768;11.474;2022-07-09T03:17:46;14.70;1.00
3792;DHT22;1911;53.768;11.474;2022-07-09T03:20:13;14.70;1.00
3792;DHT22;1911;53.768;11.474;2022-07-09T03:22:39;14.70;1.00
3792;DHT22;1911;53.768;11.474;2022-07-09T03:25:06;14.70;1.00
3792;DHT22;1911;53.768;11.474;2022-07-09T03:27:32;14.70;1.00
3792;DHT22;1911;53.768;11.474;2022-07-09T03:29:59;14.70;1.00
3792;DHT22;1911;53.768;11.474;2022-07-09T03:32:25;14.70;1.00
3792;DHT22;1911;53.768;11.474;2022-07-09T03:34:51;14.70;1.00
3792;DHT22;1911;53.768;11.474;2022-07-09T03:37:18;14.70;1.00
3792;DHT22;1911;53.768;11.474;2022-07-09T03:39:44;14.70;1.00
3792;DHT22;1911;53.768;11.474;2022-07-09T03:42:10;14.70;1.00
3792;DHT22;1911;53.768;11.474;2022-07-09T03:44:37;14.70;1.00
3792;DHT22;1911;53.768;11.474;2022-07-09T03:47:02;14.70;1.00
3792;DHT22;1911;53.768;11.474;2022-07-09T03:49:28;14.70;1.00
3792;DHT22;1911;53.768;11.474;2022-07-09T03:51:54;14.70;1.00
3792;DHT22;1911;53.768;11.474;2022-07-09T03:54:19;14.60;1.00
3792;DHT22;1911;53.768;11.474;2022-07-09T03:56:45;14.60;1.00
3792;DHT22;1911;53.768;11.474;2022-07-09T03:59:11;14.70;1.00
3792;DHT22;1911;53.768;11.474;2022-07-09T04:01:36;14.70;1.00
3792;DHT22;1911;53.768;11.474;2022-07-09T04:04:03;14.60;1.00
3792;DHT22;1911;53.768;11.474;2022-07-09T04:06:29;14.60;1.00
3792;DHT22;1911;53.768;11.474;2022-07-09T04:08:55;14.70;1.00
3792;DHT22;1911;53.768;11.474;2022-07-09T04:11:20;14.70;1.00
3792;DHT22;1911;53.768;11.474;2022-07-09T04:13:46;14.70;1.00
3792;DHT22;1911;53.768;11.474;2022-07-09T04:16:12;14.70;1.00
3792;DHT22;1911;53.768;11.474;2022-07-09T04:18:38;14.80;1.00
3792;DHT22;1911;53.768;11.474;2022-07-09T04:21:08;14.80;1.00
3792;DHT22;1911;53.768;11.474;2022-07-09T04:23:33;14.80;1.00
3792;DHT22;1911;53.768;11.474;2022-07-09T04:25:59;14.90;1.00
3792;DHT22;1911;53.768;11.474;2022-07-09T04:28:25;14.80;1.00
3792;DHT22;1911;53.768;11.474;2022-07-09T04:30:50;14.90;1.00
3792;DHT22;1911;53.768;11.474;2022-07-09T04:33:16;14.80;1.00
3792;DHT22;1911;53.768;11.474;2022-07-09T04:35:41;14.80;1.00
3792;DHT22;1911;53.768;11.474;2022-07-09T04:38:07;15.00;1.00
3792;DHT22;1911;53.768;11.474;2022-07-09T04:40:33;15.00;1.00
3792;DHT22;1911;53.768;11.474;2022-07-09T04:42:58;15.00;1.00
3792;DHT22;1911;53.768;11.474;2022-07-09T04:45:24;15.10;1.00
3792;DHT22;1911;53.768;11.474;2022-07-09T04:47:49;15.10;1.00
3792;DHT22;1911;53.768;11.474;2022-07-09T04:50:15;15.20;1.00
3792;DHT22;1911;53.768;11.474;2022-07-09T04:52:40;15.20;1.00
3792;DHT22;1911;53.768;11.474;2022-07-09T04:55:07;15.20;1.00
3792;DHT22;1911;53.768;11.474;2022-07-09T04:57:33;15.20;1.00
3792;DHT22;1911;53.768;11.474;2022-07-09T04:59:59;15.10;1.00
3792;DHT22;1911;53.768;11.474;2022-07-09T05:02:25;15.20;1.00
3792;DHT22;1911;53.768;11.474;2022-07-09T05:04:51;15.20;1.00
3792;DHT22;1911;53.768;11.474;2022-07-09T05:07:17;15.20;1.00
3792;DHT22;1911;53.768;11.474;2022-07-09T05:09:42;15.20;1.00
3792;DHT22;1911;53.768;11.474;2022-07-09T05:12:08;15.30;1.00
3792;DHT22;1911;53.768;11.474;2022-07-09T05:14:38;15.30;1.00
3792;DHT22;1911;53.768;11.474;2022-07-09T05:17:05;15.40;1.00
3792;DHT22;1911;53.768;11.474;2022-07-09T05:19:31;15.40;1.00
3792;DHT22;1911;53.768;11.474;2022-07-09T05:21:57;15.30;39.90
3792;DHT22;1911;53.768;11.474;2022-07-09T05:24:23;15.30;99.90
3792;DHT22;1911;53.768;11.474;2022-07-09T05:26:48;15.30;99.90
3792;DHT22;1911;53.768;11.474;2022-07-09T05:29:14;15.10;99.90
3792;DHT22;1911;53.768;11.474;2022-07-09T05:31:40;15.10;99.90
3792;DHT22;1911;53.768;11.474;2022-07-09T05:34:05;15.10;99.90
3792;DHT22;1911;53.768;11.474;2022-07-09T05:36:32;15.10;99.90
3792;DHT22;1911;53.768;11.474;2022-07-09T05:38:58;15.20;99.90
3792;DHT22;1911;53.768;11.474;2022-07-09T05:41:25;15.30;99.90
3792;DHT22;1911;53.768;11.474;2022-07-09T05:43:51;15.30;99.90
3792;DHT22;1911;53.768;11.474;2022-07-09T05:46:18;15.40;99.90
3792;DHT22;1911;53.768;11.474;2022-07-09T05:48:43;15.40;99.90
3792;DHT22;1911;53.768;11.474;2022-07-09T05:51:09;15.40;99.90
3792;DHT22;1911;53.768;11.474;2022-07-09T05:53:34;15.40;99.90
3792;DHT22;1911;53.768;11.474;2022-07-09T05:56:00;15.50;99.90
3792;DHT22;1911;53.768;11.474;2022-07-09T05:58:26;15.60;99.90
3792;DHT22;1911;53.768;11.474;2022-07-09T06:00:51;15.70;99.90
3792;DHT22;1911;53.768;11.474;2022-07-09T06:03:18;15.70;99.90
3792;DHT22;1911;53.768;11.474;2022-07-09T06:05:43;15.60;99.90
3792;DHT22;1911;53.768;11.474;2022-07-09T06:08:09;15.50;99.90
